Aérodrome :
LOGIN :

S'inscrire | Disclaimer

   EN    FR    IT 

 










Légende :    VFR   VFR Marginal   IFR   IFR Intensif   IFR Très Intensif
Visi : 
Plafond : 
>= 8 km
>= 3000ft
5 à 8 km
1000 à 3000 ft
1500m à 5 km
500 à 1000 ft
800 à 1500m
200 à 500 ft
< 800m
< 200 ft
Symboles :   Orages  Brouillard  Fortes neiges  Fortes précipitations  Vent > 20 kt
SIGMETs :   Divers  Orages  Givrage  Turbulence  Onde Orograph.  Cendres Volcan.






- Altitude de l'aérodrome : 1234 ft
- Code IATA : LUX


ELLX - Luxembourg Findel

DERNIER METAR :
  • 091820Z 04007KT 9999 FEW010 BKN050 00/M03 Q1004 NOSIG

METARs EXPIRÉS :
  • 091750Z 03007KT 9999 FEW011 BKN048 00/M03 Q1004 NOSIG
  • 091720Z 05006KT 010V080 9999 FEW013 BKN048 01/M03 Q1004 NOSIG
  • 091650Z 05008KT 9999 FEW031 BKN048 00/M02 Q1003 NOSIG
  • 091620Z 07005KT 9999 FEW032 BKN048 01/M02 Q1003 NOSIG
  • 091550Z 05008KT 9999 FEW032 BKN045 01/M03 Q1003 NOSIG

TAF TAF ELLX
Valide du 09 à 18h jusqu'au 11 à 00h UTC


091700Z 0918/1024 05007KT 9999 FEW030 BKN050
BECMG 0921/0923 3000 BR BKN005
PROB40 1000/1009 0300 FZFG VV002
BECMG 1009/1012 9999 SCT012
BECMG 1012/1014 29006KT
BECMG 1021/1023 0500 FZFG VV002
ATIS : +352 4798 27300
Météo : +352 4798 27010 / 27050



MET'MAP, la Météo Aéronautique d'un coup d'oeil ! - Copyright ORBIFLY Décembre 2007 - Disclaimer

ORBIFLY MET'MAP TEAM :

Programmation & Développement : Alexandra Zaïnal
Sur une idée originale de : Baudouin d'Aumeries
Soutien technique & logistique : Manuel Goepfert
Assistance : Marc-Olivier Méhu




SOURCES & CREDITS :

   NOAA